createdAt,value
2023-03-17T00:00:29.736Z,3.50
2023-03-17T00:03:27.056Z,3.70
2023-03-17T00:05:58.338Z,3.50
2023-03-17T00:08:29.505Z,3.20
2023-03-17T00:10:57.701Z,3.80
2023-03-17T00:13:27.018Z,3.70
2023-03-17T00:16:04.281Z,3.30
2023-03-17T00:18:33.689Z,3.00
2023-03-17T00:21:01.959Z,3.80
2023-03-17T00:23:30.131Z,4.60
2023-03-17T00:25:58.194Z,4.60
2023-03-17T00:28:27.768Z,4.30
2023-03-17T00:31:00.984Z,4.30
2023-03-17T00:33:33.351Z,4.00
2023-03-17T00:36:02.126Z,4.50
2023-03-17T00:38:30.546Z,4.80
2023-03-17T00:40:59.443Z,3.90
2023-03-17T00:43:29.320Z,4.00
2023-03-17T00:45:58.744Z,3.50
2023-03-17T00:48:29.916Z,4.70
2023-03-17T00:50:58.175Z,4.40
2023-03-17T00:53:30.338Z,4.20
2023-03-17T00:56:01.279Z,5.90
2023-03-17T00:58:34.424Z,6.70
2023-03-17T01:01:02.825Z,4.30
2023-03-17T01:03:31.427Z,3.60
2023-03-17T01:06:00.160Z,6.80
2023-03-17T01:08:30.296Z,6.40
2023-03-17T01:10:59.539Z,4.90
2023-03-17T01:13:28.615Z,4.00
2023-03-17T01:15:57.907Z,3.00
2023-03-17T01:18:26.353Z,3.40
2023-03-17T01:20:54.810Z,3.30
2023-03-17T01:23:23.273Z,3.60
2023-03-17T01:25:51.570Z,3.40
2023-03-17T01:28:20.518Z,3.10
2023-03-17T01:30:49.528Z,2.90
2023-03-17T01:33:19.252Z,2.90
2023-03-17T01:35:47.403Z,3.40
2023-03-17T01:38:15.687Z,3.30
2023-03-17T01:40:48.091Z,3.20
2023-03-17T01:43:20.796Z,3.60
2023-03-17T01:46:23.040Z,3.30
2023-03-17T01:49:05.556Z,3.30
2023-03-17T01:51:40.967Z,3.40
2023-03-17T01:54:14.677Z,3.40
2023-03-17T01:56:46.291Z,3.00
2023-03-17T01:59:19.892Z,3.20
2023-03-17T02:01:50.647Z,3.00
2023-03-17T02:04:21.089Z,3.70
2023-03-17T02:06:57.834Z,2.50
2023-03-17T02:09:28.578Z,3.20
2023-03-17T02:11:58.801Z,3.70
2023-03-17T02:14:28.206Z,3.20
2023-03-17T02:16:56.836Z,3.00
2023-03-17T02:19:25.276Z,2.90
2023-03-17T02:21:56.929Z,3.40
2023-03-17T02:24:32.073Z,3.10
2023-03-17T02:27:08.957Z,4.20
2023-03-17T02:29:38.263Z,3.70
2023-03-17T02:32:06.993Z,3.80
2023-03-17T02:34:35.325Z,4.40
2023-03-17T02:37:06.663Z,3.70
2023-03-17T02:39:35.039Z,3.10
2023-03-17T02:42:04.232Z,4.00
2023-03-17T02:44:33.346Z,5.40
2023-03-17T02:47:01.514Z,6.20
2023-03-17T02:49:31.906Z,6.50
2023-03-17T02:52:00.133Z,3.50
2023-03-17T02:54:28.139Z,3.30
2023-03-17T02:56:56.464Z,3.10
2023-03-17T02:59:24.741Z,3.00
2023-03-17T03:01:53.641Z,2.90
2023-03-17T03:04:22.864Z,3.10
2023-03-17T03:06:51.406Z,2.60
2023-03-17T03:09:20.724Z,2.80
2023-03-17T03:11:48.779Z,3.40
2023-03-17T03:14:17.364Z,3.10
2023-03-17T03:16:45.737Z,2.80
2023-03-17T03:19:13.935Z,2.80
2023-03-17T03:21:42.898Z,2.90
2023-03-17T03:24:11.806Z,3.10
2023-03-17T03:26:40.173Z,3.10
2023-03-17T03:29:09.254Z,3.70
2023-03-17T03:31:37.257Z,4.00
2023-03-17T03:34:05.345Z,4.40
2023-03-17T03:36:33.685Z,3.90
2023-03-17T03:39:02.398Z,2.80
2023-03-17T03:41:30.418Z,3.80
2023-03-17T03:43:58.504Z,3.30
2023-03-17T03:46:27.066Z,4.50
2023-03-17T03:48:56.080Z,4.20
2023-03-17T03:51:24.447Z,3.60
2023-03-17T03:53:52.570Z,3.50
2023-03-17T03:56:21.022Z,3.20
2023-03-17T03:58:49.067Z,3.20
2023-03-17T04:01:18.376Z,3.60
2023-03-17T04:03:47.569Z,3.00
2023-03-17T04:06:16.470Z,3.70
2023-03-17T04:08:44.842Z,3.20
2023-03-17T04:11:13.116Z,3.20
2023-03-17T04:13:41.641Z,3.90
2023-03-17T04:16:10.016Z,3.30
2023-03-17T04:18:38.390Z,4.40
2023-03-17T04:21:08.495Z,4.40
2023-03-17T04:23:36.742Z,5.00
2023-03-17T04:26:05.122Z,6.70
2023-03-17T04:28:33.414Z,11.30
2023-03-17T04:31:02.086Z,10.30
2023-03-17T04:33:30.358Z,7.30
2023-03-17T04:35:58.690Z,6.60
2023-03-17T04:38:26.828Z,7.80
2023-03-17T04:40:55.041Z,5.90
2023-03-17T04:43:23.047Z,6.10
2023-03-17T04:45:51.220Z,8.30
2023-03-17T04:48:19.269Z,4.80
2023-03-17T04:50:48.186Z,5.40
2023-03-17T04:53:16.253Z,4.60
2023-03-17T04:55:44.643Z,4.20
2023-03-17T04:58:21.152Z,4.00
2023-03-17T05:00:56.691Z,4.10
2023-03-17T05:03:27.545Z,3.70
2023-03-17T05:05:57.752Z,3.90
2023-03-17T05:08:28.448Z,3.40
2023-03-17T05:10:58.617Z,4.40
2023-03-17T05:13:27.360Z,10.70
2023-03-17T05:15:56.909Z,3.20
2023-03-17T05:18:26.462Z,4.70
2023-03-17T05:20:54.891Z,3.40
2023-03-17T05:23:23.257Z,5.80
2023-03-17T05:25:52.789Z,6.60
2023-03-17T05:28:21.508Z,9.10
2023-03-17T05:30:50.286Z,8.70
2023-03-17T05:33:18.771Z,10.30
2023-03-17T05:35:47.610Z,7.60
2023-03-17T05:38:16.251Z,13.30
2023-03-17T05:40:45.057Z,10.80
2023-03-17T05:43:13.310Z,11.40
2023-03-17T05:45:41.687Z,18.70
2023-03-17T05:48:09.866Z,15.10
2023-03-17T05:50:38.240Z,13.60
2023-03-17T05:53:06.725Z,15.40
2023-03-17T05:55:35.005Z,15.50
2023-03-17T05:58:05.395Z,11.90
2023-03-17T06:00:33.915Z,11.00
2023-03-17T06:03:03.921Z,12.00
2023-03-17T06:05:32.209Z,14.70
2023-03-17T06:08:00.824Z,14.80
2023-03-17T06:10:29.696Z,16.40
2023-03-17T06:12:59.155Z,19.70
2023-03-17T06:15:28.020Z,13.00
2023-03-17T06:17:56.753Z,12.80
2023-03-17T06:20:25.803Z,12.50
2023-03-17T06:23:04.011Z,12.90
2023-03-17T06:25:35.224Z,14.20
2023-03-17T06:28:05.681Z,12.30
2023-03-17T06:30:35.641Z,11.50
2023-03-17T06:33:04.391Z,11.80
2023-03-17T06:35:33.893Z,10.50
2023-03-17T06:38:03.617Z,7.40
2023-03-17T06:40:32.441Z,8.10
2023-03-17T06:43:01.547Z,6.50
2023-03-17T06:45:30.048Z,8.90
2023-03-17T06:47:59.109Z,10.80
2023-03-17T06:50:27.619Z,10.30
2023-03-17T06:52:56.175Z,16.20
2023-03-17T06:55:24.181Z,68.70
2023-03-17T06:57:52.757Z,23.90
2023-03-17T07:00:21.333Z,31.30
2023-03-17T07:02:49.900Z,53.10
2023-03-17T07:05:18.800Z,44.10
2023-03-17T07:07:46.870Z,19.80
2023-03-17T07:10:16.018Z,31.10
2023-03-17T07:12:45.265Z,25.70
2023-03-17T07:15:15.610Z,7.80
2023-03-17T07:17:43.745Z,4.80
2023-03-17T07:20:14.058Z,15.20
2023-03-17T07:22:42.644Z,9.10
2023-03-17T07:25:11.259Z,9.90
2023-03-17T07:27:39.519Z,10.20
2023-03-17T07:30:08.514Z,8.80
2023-03-17T07:32:37.875Z,17.00
2023-03-17T07:35:07.453Z,16.70
2023-03-17T07:37:35.675Z,13.30
2023-03-17T07:40:05.283Z,7.40
2023-03-17T07:42:34.210Z,7.10
2023-03-17T07:45:04.034Z,5.70
2023-03-17T07:47:32.171Z,6.00
2023-03-17T07:50:00.652Z,5.50
2023-03-17T07:52:28.892Z,6.80
2023-03-17T07:54:58.494Z,7.60
2023-03-17T07:57:27.371Z,8.40
2023-03-17T07:59:56.210Z,8.30
2023-03-17T08:02:24.373Z,32.10
2023-03-17T08:04:54.230Z,7.70
2023-03-17T08:07:22.579Z,11.20
2023-03-17T08:09:51.454Z,6.70
2023-03-17T08:12:20.342Z,5.00
2023-03-17T08:14:48.530Z,5.80
2023-03-17T08:17:17.539Z,5.40
2023-03-17T08:19:45.695Z,4.40
2023-03-17T08:22:14.456Z,5.10
2023-03-17T08:24:43.291Z,4.10
2023-03-17T08:27:11.517Z,4.20
2023-03-17T08:29:39.997Z,3.70
2023-03-17T08:32:08.857Z,4.20
2023-03-17T08:34:37.594Z,3.50
2023-03-17T08:37:10.066Z,3.70
2023-03-17T08:39:39.699Z,4.30
2023-03-17T08:42:08.512Z,4.40
2023-03-17T08:44:36.745Z,3.40
2023-03-17T08:47:05.559Z,4.30
2023-03-17T08:49:36.230Z,4.10
2023-03-17T08:52:05.280Z,6.20
2023-03-17T08:54:34.879Z,5.30
2023-03-17T08:57:04.353Z,4.90
2023-03-17T08:59:33.754Z,14.40
2023-03-17T09:02:01.946Z,10.90
2023-03-17T09:04:30.628Z,10.40
2023-03-17T09:07:03.688Z,7.00
2023-03-17T09:09:35.253Z,9.00
2023-03-17T09:12:06.414Z,4.80
2023-03-17T09:14:43.125Z,5.50
2023-03-17T09:17:14.662Z,4.90
2023-03-17T09:19:43.877Z,3.00
2023-03-17T09:22:14.409Z,4.10
2023-03-17T09:24:43.223Z,5.50
2023-03-17T09:27:11.584Z,7.40
2023-03-17T09:29:42.186Z,5.60
2023-03-17T09:32:11.490Z,5.80
2023-03-17T09:34:39.605Z,5.80
2023-03-17T09:37:10.103Z,11.20
2023-03-17T09:39:38.747Z,4.60
2023-03-17T09:42:25.664Z,8.60
2023-03-17T09:44:53.838Z,5.80
2023-03-17T09:48:11.268Z,10.00
2023-03-17T09:50:45.611Z,7.10
2023-03-17T09:53:42.945Z,6.30
2023-03-17T09:56:16.678Z,9.00
2023-03-17T09:58:52.183Z,5.30
2023-03-17T10:01:21.016Z,5.40
2023-03-17T10:03:51.006Z,5.10
2023-03-17T10:06:33.812Z,5.90
2023-03-17T10:09:25.488Z,6.40
2023-03-17T10:12:17.060Z,5.50
2023-03-17T10:14:52.682Z,5.10
2023-03-17T10:17:23.832Z,4.70
2023-03-17T10:20:01.046Z,4.70
2023-03-17T10:22:43.331Z,5.10
2023-03-17T10:25:26.352Z,4.90
2023-03-17T10:28:19.742Z,5.20
2023-03-17T10:30:47.801Z,7.80
2023-03-17T10:33:16.201Z,6.70
2023-03-17T10:35:45.166Z,8.60
2023-03-17T10:38:24.393Z,7.40
2023-03-17T10:41:08.568Z,9.40
2023-03-17T10:43:50.729Z,7.10
2023-03-17T10:46:22.421Z,7.50
2023-03-17T10:48:57.034Z,7.50
2023-03-17T10:51:31.960Z,6.70
2023-03-17T10:54:04.481Z,5.30
2023-03-17T10:56:37.597Z,6.10
2023-03-17T10:59:35.626Z,6.40
2023-03-17T11:02:43.405Z,5.60
2023-03-17T11:05:27.870Z,5.30
2023-03-17T11:08:15.292Z,5.60
2023-03-17T11:10:44.601Z,8.80
2023-03-17T11:13:17.088Z,4.50
2023-03-17T11:35:17.530Z,4.70
2023-03-17T11:38:07.212Z,4.90
2023-03-17T11:40:44.156Z,5.90
2023-03-17T11:43:31.580Z,6.70
2023-03-17T11:46:20.382Z,7.30
2023-03-17T11:48:55.381Z,5.30
2023-03-17T11:51:32.411Z,4.90
2023-03-17T11:54:20.522Z,4.40
2023-03-17T11:56:54.321Z,4.10
2023-03-17T11:59:40.929Z,4.90
2023-03-17T12:02:33.884Z,13.60
2023-03-17T12:05:06.837Z,20.00
2023-03-17T12:07:48.130Z,3.60
2023-03-17T12:10:22.653Z,7.40
2023-03-17T12:12:56.430Z,4.30
2023-03-17T12:15:32.872Z,4.80
2023-03-17T12:18:23.299Z,4.20
2023-03-17T12:20:58.083Z,3.70
2023-03-17T12:23:41.379Z,4.70
2023-03-17T12:29:00.261Z,5.80
2023-03-17T12:31:33.456Z,3.70
2023-03-17T12:34:42.889Z,7.00
2023-03-17T12:37:11.118Z,5.20
2023-03-17T12:39:45.304Z,3.80
2023-03-17T12:42:41.705Z,3.80
2023-03-17T12:45:42.124Z,3.80
2023-03-17T12:48:47.477Z,6.00
2023-03-17T12:51:40.340Z,2.80
2023-03-17T12:54:29.978Z,2.90
2023-03-17T12:57:21.496Z,3.90
2023-03-17T12:59:59.017Z,4.90
2023-03-17T13:02:30.379Z,4.30
2023-03-17T13:05:01.128Z,2.70
2023-03-17T13:07:57.468Z,2.60
2023-03-17T13:10:43.884Z,3.40
2023-03-17T13:13:49.888Z,3.90
2023-03-17T13:16:47.659Z,5.40
2023-03-17T13:19:19.037Z,2.40
2023-03-17T13:22:12.931Z,2.00
2023-03-17T13:24:52.411Z,5.60
2023-03-17T13:27:32.884Z,3.00
2023-03-17T13:30:26.046Z,9.10
2023-03-17T13:35:46.196Z,17.30
2023-03-17T13:38:29.404Z,4.20
2023-03-17T13:41:06.502Z,3.20
2023-03-17T13:43:43.436Z,2.50
2023-03-17T13:46:40.214Z,2.60
2023-03-17T13:49:19.538Z,2.80
2023-03-17T13:52:00.276Z,2.20
2023-03-17T13:54:29.314Z,2.30
2023-03-17T13:57:18.569Z,4.60
2023-03-17T14:00:01.397Z,5.40
2023-03-17T14:02:33.008Z,2.80
2023-03-17T14:05:07.724Z,3.20
2023-03-17T14:07:49.569Z,3.00
2023-03-17T14:10:21.594Z,3.00
2023-03-17T14:12:56.961Z,5.40
2023-03-17T14:15:34.981Z,4.60
2023-03-17T14:18:16.584Z,4.00
2023-03-17T14:20:56.976Z,3.30
2023-03-17T14:23:26.820Z,3.30
2023-03-17T14:26:00.010Z,2.80
2023-03-17T14:28:31.062Z,2.80
2023-03-17T14:31:05.534Z,5.30
2023-03-17T14:33:39.974Z,4.40
2023-03-17T14:36:14.241Z,5.40
2023-03-17T14:38:51.819Z,6.50
2023-03-17T14:41:30.774Z,6.80
2023-03-17T14:44:01.761Z,3.90
2023-03-17T14:46:41.306Z,3.90
2023-03-17T14:49:23.181Z,7.90
2023-03-17T14:51:58.950Z,2.10
2023-03-17T14:54:32.135Z,2.10
2023-03-17T14:59:40.664Z,2.30
2023-03-17T15:02:36.170Z,2.20
2023-03-17T15:05:22.274Z,1.80
2023-03-17T15:07:51.165Z,1.60
2023-03-17T15:10:22.409Z,1.80
2023-03-17T15:13:00.803Z,2.00
2023-03-17T15:15:35.049Z,1.60
2023-03-17T15:18:15.401Z,1.80
2023-03-17T15:20:45.022Z,1.80
2023-03-17T15:23:23.739Z,1.80
2023-03-17T15:25:58.319Z,1.40
2023-03-17T15:28:32.108Z,1.40
2023-03-17T15:31:12.773Z,1.20
2023-03-17T15:33:42.275Z,1.50
2023-03-17T15:36:31.206Z,1.40
2023-03-17T15:39:02.513Z,2.20
2023-03-17T15:41:30.707Z,1.40
2023-03-17T15:43:58.884Z,1.40
2023-03-17T15:46:31.211Z,1.70
2023-03-17T15:48:59.942Z,1.40
2023-03-17T15:51:28.152Z,1.50
2023-03-17T15:53:56.263Z,1.40
2023-03-17T15:56:24.468Z,1.60
2023-03-17T15:58:52.748Z,1.40
2023-03-17T16:01:21.389Z,1.30
2023-03-17T16:03:50.200Z,1.30
2023-03-17T16:06:22.126Z,1.20
2023-03-17T16:08:51.057Z,1.30
2023-03-17T16:11:28.215Z,1.40
2023-03-17T16:13:58.670Z,1.20
2023-03-17T16:16:43.439Z,1.20
2023-03-17T16:19:20.301Z,1.30
2023-03-17T16:21:49.476Z,1.40
2023-03-17T16:24:23.936Z,1.20
2023-03-17T16:26:53.121Z,1.40
2023-03-17T16:29:21.955Z,1.80
2023-03-17T16:31:51.331Z,1.50
2023-03-17T16:34:22.428Z,1.20
2023-03-17T16:36:51.494Z,1.80
2023-03-17T16:39:23.233Z,1.50
2023-03-17T16:41:53.495Z,2.10
2023-03-17T16:44:22.290Z,2.50
2023-03-17T16:46:50.595Z,2.00
2023-03-17T16:49:23.054Z,1.50
2023-03-17T16:51:51.355Z,1.80
2023-03-17T16:54:19.397Z,2.50
2023-03-17T16:56:47.944Z,1.60
2023-03-17T16:59:21.414Z,1.60
2023-03-17T17:01:49.909Z,1.60
2023-03-17T17:04:18.360Z,1.50
2023-03-17T17:06:46.738Z,1.70
2023-03-17T17:09:14.810Z,1.50
2023-03-17T17:11:43.185Z,1.70
2023-03-17T17:14:11.467Z,1.60
2023-03-17T17:16:40.465Z,1.30
2023-03-17T17:19:16.953Z,1.50
2023-03-17T17:21:45.520Z,1.50
2023-03-17T17:24:14.481Z,1.40
2023-03-17T17:26:42.812Z,1.20
2023-03-17T17:29:10.903Z,1.40
2023-03-17T17:31:39.265Z,1.50
2023-03-17T17:34:07.417Z,1.20
2023-03-17T17:36:35.791Z,1.60
2023-03-17T17:39:03.845Z,1.50
2023-03-17T17:41:32.745Z,1.40
2023-03-17T17:44:01.128Z,2.80
2023-03-17T17:46:29.227Z,3.10
2023-03-17T17:48:57.565Z,2.80
2023-03-17T17:51:25.673Z,2.20
2023-03-17T17:53:54.044Z,1.80
2023-03-17T17:56:22.132Z,1.40
2023-03-17T17:58:50.799Z,2.10
2023-03-17T18:01:22.460Z,2.20
2023-03-17T18:03:50.702Z,1.70
2023-03-17T18:06:18.973Z,2.30
2023-03-17T18:08:50.028Z,2.70
2023-03-17T18:11:19.132Z,2.80
2023-03-17T18:13:47.287Z,2.90
2023-03-17T18:16:17.488Z,2.00
2023-03-17T18:18:47.290Z,1.90
2023-03-17T18:21:16.117Z,1.90
2023-03-17T18:23:50.090Z,2.40
2023-03-17T18:26:18.598Z,2.20
2023-03-17T18:28:48.001Z,1.90
2023-03-17T18:31:26.220Z,1.90
2023-03-17T18:34:03.190Z,1.80
2023-03-17T18:36:31.889Z,2.50
2023-03-17T18:39:00.456Z,2.10
2023-03-17T18:41:28.943Z,2.00
2023-03-17T18:43:57.211Z,2.30
2023-03-17T18:46:25.430Z,1.70
2023-03-17T18:48:53.574Z,1.90
2023-03-17T18:51:21.629Z,1.90
2023-03-17T18:53:50.012Z,2.10
2023-03-17T18:56:18.229Z,2.20
2023-03-17T18:58:46.256Z,2.30
2023-03-17T19:01:14.668Z,2.10
2023-03-17T19:03:42.906Z,2.10
2023-03-17T19:06:16.732Z,1.90
2023-03-17T19:08:45.422Z,2.80
2023-03-17T19:11:15.811Z,2.60
2023-03-17T19:13:45.757Z,2.70
2023-03-17T19:16:14.055Z,2.00
2023-03-17T19:18:42.826Z,1.90
2023-03-17T19:21:12.219Z,2.50
2023-03-17T19:36:51.579Z,2.70
2023-03-17T19:39:19.955Z,3.50
2023-03-17T19:41:52.809Z,2.90
2023-03-17T19:44:22.553Z,2.60
2023-03-17T19:46:51.347Z,3.50
2023-03-17T19:49:21.349Z,6.50
2023-03-17T19:51:50.265Z,5.00
2023-03-17T19:54:19.065Z,3.70
2023-03-17T19:56:47.504Z,5.30
2023-03-17T19:59:15.668Z,4.00
2023-03-17T20:01:44.095Z,3.50
2023-03-17T20:04:17.645Z,3.70
2023-03-17T20:06:47.056Z,3.30
2023-03-17T20:09:15.196Z,2.80
2023-03-17T20:11:43.421Z,3.60
2023-03-17T20:14:11.585Z,4.70
2023-03-17T20:16:41.538Z,4.10
2023-03-17T20:19:09.988Z,4.60
2023-03-17T20:21:38.043Z,4.60
2023-03-17T20:24:07.197Z,4.90
2023-03-17T20:26:35.626Z,3.20
2023-03-17T20:29:03.904Z,3.20
2023-03-17T20:31:32.249Z,2.80
2023-03-17T20:34:00.780Z,3.30
2023-03-17T20:36:28.937Z,4.10
2023-03-17T20:38:57.114Z,3.90
2023-03-17T20:41:25.592Z,3.20
2023-03-17T20:43:53.767Z,4.00
2023-03-17T20:46:24.056Z,3.70
2023-03-17T20:48:58.695Z,3.70
2023-03-17T20:51:28.028Z,3.70
2023-03-17T20:53:57.015Z,4.70
2023-03-17T20:56:26.660Z,4.10
2023-03-17T20:58:56.437Z,3.90
2023-03-17T21:01:25.883Z,4.10
2023-03-17T21:03:54.321Z,3.60
2023-03-17T21:06:25.866Z,2.90
2023-03-17T21:08:55.273Z,3.30
2023-03-17T21:11:23.434Z,4.00
2023-03-17T21:13:52.135Z,3.20
2023-03-17T21:16:24.122Z,3.00
2023-03-17T21:18:53.026Z,3.20
2023-03-17T21:21:22.175Z,3.50
2023-03-17T21:23:51.161Z,3.10
2023-03-17T21:26:19.770Z,4.10
2023-03-17T21:28:48.896Z,5.20
2023-03-17T21:31:17.584Z,4.00
2023-03-17T21:33:50.498Z,4.90
2023-03-17T21:36:21.009Z,4.00
2023-03-17T21:38:49.104Z,4.00
2023-03-17T21:41:33.455Z,4.20
2023-03-17T21:44:03.160Z,3.60
2023-03-17T21:46:32.057Z,3.50
2023-03-17T21:49:01.593Z,3.40
2023-03-17T21:51:30.157Z,3.30
2023-03-17T21:53:58.825Z,2.50
2023-03-17T21:56:27.522Z,2.60
2023-03-17T21:58:57.495Z,2.50
2023-03-17T22:07:21.384Z,2.40
2023-03-17T22:09:53.307Z,2.10
2023-03-17T22:12:21.410Z,2.30
2023-03-17T22:14:49.570Z,2.30
2023-03-17T22:17:17.728Z,2.80
2023-03-17T22:19:48.821Z,1.70
2023-03-17T22:22:17.351Z,1.60
2023-03-17T22:24:45.522Z,1.60
2023-03-17T22:27:15.341Z,1.50
2023-03-17T22:29:44.354Z,2.00
2023-03-17T22:32:12.599Z,1.40
2023-03-17T22:34:40.886Z,1.50
2023-03-17T22:37:09.775Z,1.30
2023-03-17T22:39:37.931Z,1.70
2023-03-17T22:42:06.552Z,1.50
2023-03-17T22:44:34.764Z,1.30
2023-03-17T22:47:02.944Z,1.20
2023-03-17T22:49:31.466Z,1.30
2023-03-17T22:51:59.545Z,1.10
2023-03-17T22:54:27.714Z,1.50
2023-03-17T22:56:55.802Z,1.30
2023-03-17T22:59:24.259Z,1.50
2023-03-17T23:01:52.736Z,1.70
2023-03-17T23:04:20.807Z,1.60
2023-03-17T23:06:49.193Z,2.40
2023-03-17T23:09:17.386Z,1.50
2023-03-17T23:11:46.050Z,1.50
2023-03-17T23:14:14.216Z,1.70
2023-03-17T23:16:43.175Z,1.80
2023-03-17T23:19:11.302Z,1.60
2023-03-17T23:21:40.076Z,1.60
2023-03-17T23:24:08.790Z,1.80
2023-03-17T23:26:37.952Z,2.80
2023-03-17T23:29:08.653Z,1.80
2023-03-17T23:31:37.379Z,2.10
2023-03-17T23:34:06.809Z,1.70
2023-03-17T23:36:40.245Z,1.70
2023-03-17T23:39:09.899Z,2.10
2023-03-17T23:41:38.266Z,2.10
2023-03-17T23:44:06.962Z,2.50
2023-03-17T23:46:35.382Z,1.90
2023-03-17T23:49:04.728Z,1.70
2023-03-17T23:51:34.463Z,2.10
2023-03-17T23:54:02.708Z,2.00
2023-03-17T23:56:30.983Z,2.10
2023-03-17T23:58:59.167Z,2.20
